Flight Track Log - Related Links

Times and Time Zones

All times are in EDT time to prevent confusion due to time zone crossing. See the FLG3326 flight status page for this flight to view local times or setup timezone preferences in your user account.


Time Position Orientation Groundspeed Altitude Reporting Facility
EDT Latitude Longitude Course Direction KTS MPH feet Rate Location/Type
Mon 12:11:33 PM 38.7833 -90.4333 360° North 182 209 2,300  Level Gateway (St. Louis) TRACON
Mon 12:12:34 PM 38.8500 -90.4333 360° North 238 274 3,900 1,886 Climbing Gateway (St. Louis) TRACON
Mon 12:13:53 PM 38.8981 -90.3175 62° Northeast 269 310 6,700 2,113 Climbing Kansas City Center
Mon 12:14:56 PM 38.8814 -90.2122 101° East 295 339 8,900 1,728 Climbing Kansas City Center
Mon 12:15:58 PM 38.8292 -90.1158 125° Southeast 319 367 10,300 1,500 Climbing Kansas City Center
Mon 12:17:00 PM 38.7700 -90.0064 125° Southeast 360 414 12,000 1,839 Climbing Kansas City Center
Mon 12:18:02 PM 38.7089 -89.8931 125° Southeast 379 436 14,100 1,645 Climbing Kansas City Center
Mon 12:19:04 PM 38.6472 -89.7786 125° Southeast 386 444 15,400 1,500 Climbing Kansas City Center
Mon 12:20:06 PM 38.5725 -89.6425 125° Southeast 399 459 17,200 1,597 Climbing Kansas City Center
Mon 12:21:08 PM 38.5167 -89.5017 117° Southeast 419 482 18,700 1,355 Climbing Kansas City Center
Mon 12:22:10 PM 38.4767 -89.3639 110° East 417 480 20,000 1,258 Climbing Kansas City Center
Mon 12:23:12 PM 38.4336 -89.2114 110° East 425 489 21,300 1,161 Climbing Kansas City Center
Mon 12:24:14 PM 38.3883 -89.0683 112° Southeast 436 502 22,400 968 Climbing Kansas City Center
Mon 12:25:16 PM 38.3442 -88.9411 114° Southeast 444 511 23,300 1,016 Climbing Kansas City Center
Mon 12:26:18 PM 38.2892 -88.7958 116° Southeast 452 520 24,500 1,161 Climbing Kansas City Center
Mon 12:27:20 PM 38.2319 -88.6289 114° Southeast 452 520 25,700 1,016 Climbing Kansas City Center
Mon 12:28:22 PM 38.1808 -88.4786 113° Southeast 458 527 26,600 871 Climbing Kansas City Center
Mon 12:29:24 PM 38.1281 -88.3261 114° Southeast 467 537 27,500 950 Climbing Kansas City Center
Mon 12:30:03 PM 38.1303 -88.1917 89° East 478 550 28,200 960 Climbing Indianapolis Center
Mon 12:31:04 PM 38.1292 -88.0214 90° East 482 555 29,100 829 Climbing Indianapolis Center
Mon 12:32:06 PM 38.1283 -87.8503 90° East 484 557 29,900 780 Climbing Indianapolis Center
Mon 12:33:07 PM 38.1281 -87.6775 90° East 488 562 30,700 780 Climbing Indianapolis Center
Mon 12:34:09 PM 38.1272 -87.5028 90° East 492 566 31,500 780 Climbing Indianapolis Center
Mon 12:35:10 PM 38.1258 -87.3297 91° East 493 567 32,300 780 Climbing Indianapolis Center
Mon 12:36:12 PM 38.1244 -87.1567 91° East 495 570 33,100 927 Climbing Indianapolis Center
Mon 12:37:13 PM 38.1228 -86.9511 91° East 495 570 34,200 927 Climbing Indianapolis Center
Mon 12:38:15 PM 38.1219 -86.7822 90° East 486 559 35,000 390 Climbing Indianapolis Center
Mon 12:39:16 PM 38.1194 -86.6106 91° East 487 560 35,000  Level Indianapolis Center
Mon 12:40:18 PM 38.1169 -86.4336 91° East 499 574 35,000  Level Indianapolis Center
Mon 12:41:19 PM 38.1156 -86.2589 91° East 498 573 35,000  Level Indianapolis Center
Mon 12:42:21 PM 38.1117 -86.0811 92° East 501 577 35,000  Level Indianapolis Center
Mon 12:43:22 PM 38.1083 -85.9056 91° East 498 573 35,000  Level Indianapolis Center
Mon 12:44:24 PM 38.1061 -85.7292 91° East 500 575 35,000  Level Indianapolis Center
Mon 12:45:26 PM 38.0961 -85.5164 93° East 505 581 35,000  Level Indianapolis Center
Mon 12:46:27 PM 38.0683 -85.3453 102° East 496 571 35,000  Level Indianapolis Center
Mon 12:47:29 PM 38.0425 -85.1758 101° East 494 568 35,000  Level Indianapolis Center
Mon 12:48:30 PM 38.0150 -85.0053 102° East 494 568 35,000  Level Indianapolis Center
Mon 12:49:32 PM 37.9878 -84.8350 101° East 491 565 35,000  Level Indianapolis Center
Mon 12:50:34 PM 37.9594 -84.6656 102° East 491 565 35,000  Level Indianapolis Center
Mon 12:51:35 PM 37.9333 -84.4953 101° East 492 566 35,000  Level Indianapolis Center
Mon 12:52:37 PM 37.8989 -84.3000 103° East 487 560 35,000  Level Indianapolis Center
Mon 12:53:38 PM 37.8703 -84.1306 102° East 490 564 35,000  Level Indianapolis Center
Mon 12:54:40 PM 37.8422 -83.9606 102° East 492 566 35,000  Level Indianapolis Center
Mon 12:55:42 PM 37.8147 -83.7903 102° East 495 570 35,000  Level Indianapolis Center
Mon 12:56:43 PM 37.7853 -83.6197 102° East 494 568 35,000  Level Indianapolis Center
Mon 12:57:45 PM 37.7564 -83.4506 102° East 493 567 35,000  Level Indianapolis Center
Mon 12:58:47 PM 37.7264 -83.2814 103° East 492 566 35,000  Level Indianapolis Center
Mon 12:59:48 PM 37.6997 -83.1078 101° East 502 578 35,000  Level Indianapolis Center
Mon 01:00:50 PM 37.7083 -82.8983 87° East 510 587 35,000  Level Indianapolis Center
Mon 01:01:52 PM 37.7172 -82.7219 86° East 504 580 35,000  Level Indianapolis Center
Mon 01:02:53 PM 37.7258 -82.5436 86° East 505 581 35,000  Level Indianapolis Center
Mon 01:03:55 PM 37.7322 -82.3603 87° East 516 594 35,000  Level Indianapolis Center
Mon 01:04:57 PM 37.7397 -82.1800 87° East 513 590 35,000  Level Indianapolis Center
Mon 01:05:58 PM 37.7481 -82.0008 87° East 510 587 35,000  Level Indianapolis Center
Mon 01:07:00 PM 37.7553 -81.8194 87° East 515 593 35,000  Level Indianapolis Center
Mon 01:08:02 PM 37.7622 -81.6386 87° East 516 594 35,000  Level Indianapolis Center
Mon 01:09:03 PM 37.7692 -81.4283 88° East 517 595 35,000  Level Indianapolis Center
Mon 01:10:05 PM 37.7764 -81.2533 87° East 515 593 35,000  Level Indianapolis Center
Mon 01:11:07 PM 37.7822 -81.0803 88° East 509 586 35,000  Level Indianapolis Center
Mon 01:12:08 PM 37.7953 -80.9058 85° East 511 588 35,000  Level Indianapolis Center
Mon 01:13:10 PM 37.8089 -80.6972 85° East 512 589 35,000  Level Indianapolis Center
Mon 01:14:11 PM 37.8181 -80.5419 86° East 511 588 35,000  Level Indianapolis Center
Mon 01:15:13 PM 37.8300 -80.3489 85° East 511 588 35,000  Level Indianapolis Center
Mon 01:16:15 PM 37.8425 -80.1389 86° East 511 588 35,000  Level Indianapolis Center
Mon 01:17:16 PM 37.8531 -79.9656 86° East 508 585 35,000  Level Indianapolis Center
Mon 01:18:18 PM 37.8636 -79.7903 86° East 511 588 35,000  Level Indianapolis Center
Mon 01:19:20 PM 37.8744 -79.6167 85° East 505 581 35,000  Level Indianapolis Center
Mon 01:20:34 PM 37.8906 -79.3756 85° East 518 596 35,000  Level Washington Center
Mon 01:21:36 PM 37.9000 -79.1972 86° East 518 596 35,000  Level Washington Center
Mon 01:22:34 PM 37.8800 -79.0253 98° East 501 577 35,000  Level Washington Center
Mon 01:23:34 PM 37.8325 -78.8600 110° East 501 577 35,000  Level Washington Center
Mon 01:24:34 PM 37.7869 -78.6925 109° East 501 577 35,000  Level Washington Center
Mon 01:25:36 PM 37.7428 -78.5489 111° Southeast 501 577 35,000  Level Washington Center
Mon 01:26:34 PM 37.6944 -78.3842 110° East 496 571 35,000  Level Washington Center
Mon 01:27:35 PM 37.6481 -78.2225 110° East 496 571 35,000  Level Washington Center
Mon 01:28:36 PM 37.5972 -78.0608 112° Southeast 496 571 35,000  Level Washington Center
Mon 01:29:36 PM 37.5483 -77.8994 111° Southeast 496 571 35,000  Level Washington Center
Mon 01:30:34 PM 37.5203 -77.7258 101° East 496 571 35,000  Level Washington Center
Mon 01:31:34 PM 37.5106 -77.5528 94° East 491 565 35,000  Level Washington Center
Mon 01:32:34 PM 37.4989 -77.3797 95° East 491 565 35,000  Level Washington Center
Mon 01:33:35 PM 37.4867 -77.2042 95° East 491 565 35,000  Level Washington Center
Mon 01:34:36 PM 37.4683 -77.0047 97° East 522 601 35,000  Level Washington Center
Mon 01:35:36 PM 37.4556 -76.8475 96° East 508 585 35,000  Level Washington Center
Mon 01:36:34 PM 37.4531 -76.6514 91° East 508 585 35,000  Level Washington Center
Mon 01:37:34 PM 37.4692 -76.4814 83° East 494 568 35,000  Level Washington Center
Mon 01:38:35 PM 37.4661 -76.3089 91° East 494 568 35,000  Level Washington Center
Mon 01:39:36 PM 37.4731 -76.1569 87° East 486 559 35,000  Level Washington Center
Mon 01:40:34 PM 37.5406 -75.9872 63° Northeast 471 542 35,000  Level Washington Center
Mon 01:41:34 PM 37.6514 -75.8831 37° Northeast 462 532 35,000  Level Washington Center
Mon 01:42:35 PM 37.7683 -75.7942 31° Northeast 472 543 35,000  Level Washington Center
Mon 01:44:00 PM 37.9099 -75.6785 30° Northeast  Level FlightAware Approximate
Mon 01:45:36 PM 38.1022 -75.5258 30° Northeast 489 563 35,000  Level Washington Center
Mon 01:46:36 PM 38.2333 -75.4306 30° Northeast 489 563 35,000  Level Washington Center
Mon 01:47:34 PM 38.3458 -75.3297 35° Northeast 489 563 35,000  Level Washington Center
Mon 01:48:35 PM 38.4625 -75.2339 33° Northeast 489 563 35,000  Level Washington Center
Mon 01:49:35 PM 38.5789 -75.1456 31° Northeast 489 563 35,000  Level Washington Center
Mon 01:50:36 PM 38.6972 -75.0569 30° Northeast 484 557 35,000 -101 Level Washington Center
Mon 01:51:00 PM 38.6467 -75.1317 30° Northeast  Level FlightAware Approximate
Mon 01:51:34 PM 38.8178 -74.9814 26° Northeast 479 551 34,800  Level Washington Center
Mon 01:52:35 PM 38.9364 -74.9031 27° Northeast 473 544 32,400 -2,311 Descending Washington Center
Mon 01:53:36 PM 39.0506 -74.8325 26° Northeast 462 532 30,100 -2,269 Descending Washington Center
Mon 01:54:34 PM 39.1583 -74.7378 34° Northeast 462 532 27,900 -2,297 Descending Washington Center
Mon 01:56:31 PM 39.3556 -74.5244 40° Northeast 491 565 23,400 -2,225 Descending New York Center
Mon 01:57:32 PM 39.4528 -74.4139 41° Northeast 480 552 21,300 -1,934 Descending New York Center
Mon 01:58:32 PM 39.5414 -74.3161 40° Northeast 448 516 19,500 -1,150 Descending New York Center
Mon 01:59:32 PM 39.6339 -74.2186 39° Northeast 420 483 19,000 -966 Descending New York Center
Mon 02:00:30 PM 39.7114 -74.1333 40° Northeast 408 470 17,600 -1,550 Descending New York Center
Mon 02:01:32 PM 39.7911 -74.0425 41° Northeast 393 452 15,900 -1,820 Descending New York Center
Mon 02:02:32 PM 39.8828 -73.9631 34° Northeast 366 421 13,900 -1,884 Descending New York Center
Mon 02:03:33 PM 39.9636 -73.9017 30° Northeast 349 402 12,100 -1,815 Descending New York Center
Mon 02:04:31 PM 40.0444 -73.8483 27° Northeast 331 381 10,300 -2,067 Descending New York Center
Mon 02:05:32 PM 40.1186 -73.7947 29° Northeast 313 360 8,000 -2,430 Descending New York Center
Mon 02:06:32 PM 40.1886 -73.7461 28° Northeast 293 337 5,400 -1,983 Descending New York Center
Mon 02:07:33 PM 40.2667 -73.7667 349° North 273 314 4,000 -694 Descending New York TRACON
Mon 02:08:33 PM 40.3333 -73.8000 339° North 238 274 4,000 -397 Level New York TRACON
Mon 02:09:34 PM 40.3833 -73.8500 323° Northwest 231 266 3,200 -496 Descending New York TRACON
Mon 02:10:34 PM 40.4333 -73.9000 323° Northwest 229 264 3,000 -100 Descending New York TRACON
Mon 02:11:34 PM 40.4833 -73.9000 360° North 200 230 3,000 -450 Level New York TRACON
Mon 02:12:34 PM 40.5333 -73.8500 37° Northeast 198 228 2,100 -900 Descending New York TRACON

Login

Don't have an account? Register now (free) for customized features, flight alerts, and more!